Tiempo atmosférico en la estación meteorológica de Agulo, Santa Cruz de Tenerife (765 m.)



Fecha
DESCASC
Temp. máxima en grados centígrados (hora)
DESCASC
Temp. mínima en grados centígrados (hora)
DESCASC
Temp. media en grados centígrados
DESCASC
Racha de viento máxima en m/sg (hora)
DESCASC
Velocidad máxima media en intervalos de 10 minutos(hora)
DESCASC
Precipitaciones diarias en mm
DESCASC
Precipitaciones de 00:00 a 06:00 en mm
DESCASC
Precipitaciones de 06:00 a 12:00 en mm
DESCASC
Precipitaciones de 12:00 a 18:00 en mm
DESCASC
Precipitaciones de 18:00 a 24:00 en mm
DESCASC
08-12-2019 16.1 (13:50) 11.6 (07:20) 13.9 9.72 (00:50) 5.56 (13:40) 0 0 0 0 0
07-12-2019 13.7 (13:30) 11.6 (06:30) 12.7 9.72 (15:20) 3.89 (06:00) 2.8 1.4 1.4 0 0
06-12-2019 12.9 (13:40) 10.4 (05:30) 11.6 10.83 (02:20) 4.44 (01:50) 3 1.6 1 0.4 0
05-12-2019 13.5 (00:30) 10.5 (00:00) 12 18.33 (13:50) 5.28 (05:50) 15.8 3.8 7.4 3.2 1.4
04-12-2019 15.1 (15:20) 11.5 (00:50) 13.3 10.83 (19:10) 3.89 (23:20) 10.2 0 2.2 0.4 7.6
03-12-2019 14.7 (15:10) 11 (00:00) 12.8 11.39 (05:20) 4.44 (05:20) 4.4 3 1.4 0 0
02-12-2019 13.9 (10:20) 12.1 (00:00) 13 10.83 (23:40) 3.61 (20:20) 4 0 0 0 4
01-12-2019 17.4 (13:40) 12.6 (00:00) 15 5 (17:50) 2.5 (12:50) 0 0 0 0 0
30-11-2019 23.2 (10:40) 13.9 (00:00) 18.6 8.33 (09:40) 5.56 (10:00) 0 0 0 0 0
29-11-2019 20.8 (12:40) 13.2 (00:00) 17 6.39 (12:40) 3.33 (12:20) 0 0 0 0 0
28-11-2019 16.1 (13:10) 13.1 (03:50) 14.6 4.44 (12:40) 2.78 (12:40) 0 0 0 0 0
27-11-2019 15.7 (12:40) 13.1 (00:00) 14.4 6.39 (05:00) 2.78 (07:10) 0 0 0 0 0
26-11-2019 16.5 (14:10) 12.8 (00:00) 14.7 5.28 (23:10) 2.22 (00:20) 0 0 0 0 0
25-11-2019 15.4 (13:10) 12.1 (03:20) 13.8 5.28 (23:50) 1.94 (00:20) 0 0 0 0 0
24-11-2019 15.6 (11:00) 13.2 (00:00) 14.4 8.61 (03:20) 2.78 (07:20) 6.2 4.8 1.2 0.2 0
23-11-2019 17.3 (15:10) 14.8 (00:00) 16 6.67 (20:20) 2.78 (18:50) 5.6 3.4 2.2 0 0
22-11-2019 19.9 (15:00) 13.7 (00:00) 16.8 8.06 (02:30) 2.78 (02:20) 10.6 10.6 0 0 0
21-11-2019 19.2 (14:20) 11.8 (00:00) 15.5 15 (17:10) 10.28 (17:10) 0.6 0.2 0 0 0.4
20-11-2019 19.2 (13:20) 11.9 (02:30) 15.6 12.22 (16:00) 7.78 (15:40) 1.8 0 0 0.6 1.2
19-11-2019 18.3 (15:40) 12.1 (00:00) 15.2 5.28 (22:20) 2.78 (15:40) 1.4 0.4 0.6 0 0.4
18-11-2019 16.8 (12:40) 12.1 (00:00) 14.4 8.61 (06:30) 2.78 (06:30) 0.2 0 0.2 0 0
17-11-2019 14 (14:20) 11.5 (00:00) 12.8 8.89 (15:20) 4.17 (09:00) 1 0.8 0 0 0.2
16-11-2019 16.2 (14:20) 11.2 (00:00) 13.7 9.72 (00:10) 4.17 (10:40) 1.2 0.2 0.8 0 0.2
15-11-2019 13.9 (00:50) 12 (00:00) 12.9 9.44 (02:40) 4.72 (01:40) 2.6 0.4 1.4 0.8 0
14-11-2019 16.3 (13:50) 13.3 (00:00) 14.8 11.11 (20:50) 4.44 (20:50) 0 0 0 0 0
13-11-2019 16.3 (13:10) 13.5 (00:00) 14.9 10 (18:40) 3.33 (10:00) 0.2 0 0.2 0 0
12-11-2019 15.8 (12:50) 13.4 (00:00) 14.6 -- (--) -- (--) 3.6 0 0 3.4 0.2
11-11-2019 16.9 (11:50) 13.1 (01:20) 15 11.39 (01:40) 5.28 (00:10) 0 0 0 0 0

Gráficas

Temp. máximas Temp. mínimas Temp. medias Precipitaciones Rachas de viento máximas Velocidades máximas media en intervalos de 10 minutos

Datos horarios

Fecha y hora oficial Temperatura (ºC) Velocidad del viento (km/h) Dirección del viento Racha (km/h) Dirección de racha Precipitación (mm) Presión (hPa) Tendencia (hPa) Humedad (%)
2019-12-10 23:00:00 13.4 5 Sudeste 18 Este 0 -- -- 100
2019-12-10 22:00:00 12.8 7 Sudeste 22 Nordeste 0 -- -- 100
2019-12-10 21:00:00 13 9 Sudeste 21 Sudeste 0 -- -- 100
2019-12-10 20:00:00 13.3 7 Sudeste 23 Este 0 -- -- 100
2019-12-10 19:00:00 13.4 6 Sur 23 Sudeste 0 -- -- 100
2019-12-10 18:00:00 13.5 10 Sudeste 22 Sudeste 0 -- -- 100
2019-12-10 17:00:00 13.6 6 Sudeste 19 Este 0 -- -- 98
2019-12-10 16:00:00 13.9 4 Sudeste 15 Sudeste 0 -- -- 98
2019-12-10 15:00:00 14.1 6 Sudeste 15 Nordeste 0 -- -- 96
2019-12-10 14:00:00 15 4 Sudeste 16 Este 0 -- -- 91
2019-12-10 13:00:00 14.7 7 Este 18 Este 0 -- -- 86
2019-12-10 12:00:00 14 3 Oeste 17 Este 0 -- -- 90
2019-12-10 11:00:00 13.8 5 Sudeste 17 Nordeste 0 -- -- 91
2019-12-10 10:00:00 13.1 4 Sudeste 14 Este 0 -- -- 93
2019-12-10 09:00:00 11.8 3 Sudeste 13 Sudeste 0 -- -- 99
2019-12-10 08:00:00 11.1 3 Sudeste 12 Sudeste 0 -- -- 98
2019-12-10 07:00:00 11.3 5 Sudoeste 14 Sudoeste 0 -- -- 99
2019-12-10 06:00:00 11.1 4 Este 15 Nordeste 0 -- -- 98
2019-12-10 05:00:00 11 5 Este 19 Sudeste 0 -- -- 98
2019-12-10 04:00:00 11.1 5 Este 14 Este 0 -- -- 98
2019-12-10 03:00:00 11.2 9 Este 19 Sudeste 0 -- -- 98
2019-12-10 02:00:00 11.3 6 Sudeste 21 Este 0 -- -- 98
2019-12-10 01:00:00 11.5 4 Sudeste 17 Sudeste 0 -- -- 98
2019-12-10 00:00:00 11.7 3 Sur 13 Sur 0 -- -- 98
2019-12-09 23:00:00 12 4 Sudeste 11 Sudeste 0 -- -- 99
2019-12-09 22:00:00 12.1 5 Sudeste 15 Este 0 -- -- 100
2019-12-09 21:00:00 12.3 8 Sudeste 20 Sudeste 0 -- -- 100
2019-12-09 20:00:00 12.5 5 Sur 15 Sur 0 -- -- 100
2019-12-09 19:00:00 12.7 5 Sur 25 Nordeste 0 -- -- 100
2019-12-09 18:00:00 13 5 Sur 17 Este 0 -- -- 98
2019-12-09 17:00:00 13.7 4 Este 16 Este 0 -- -- 95
2019-12-09 16:00:00 13.8 5 Este 17 Sudeste 0 -- -- 95
2019-12-09 15:00:00 13.5 5 Sudeste 23 Nordeste 0 -- -- 97
2019-12-09 14:00:00 13.3 5 Sudeste 17 Sudeste 0 -- -- 96
2019-12-09 13:00:00 13.1 8 Sudeste 27 Sudeste 0 -- -- 98
2019-12-09 12:00:00 13 8 Sudeste 28 Sudeste 0 -- -- 97
2019-12-09 11:00:00 13.1 8 Sudeste 23 Este 0 -- -- 96
2019-12-09 10:00:00 13.5 5 Este 18 Este 0 -- -- 91
2019-12-09 09:00:00 12.3 11 Sudeste 21 Sudeste 0 -- -- 99
2019-12-09 08:00:00 11.8 6 Sudeste 20 Este 0 -- -- 99
2019-12-09 07:00:00 11.6 7 Sudeste 27 Este 0 -- -- 98
2019-12-09 06:00:00 11.6 7 Sudeste 22 Nordeste 0 -- -- 99
2019-12-09 05:00:00 11.5 7 Este 23 Sudeste 0 -- -- 98
2019-12-09 04:00:00 11.4 8 Sudeste 25 Sudeste 0 -- -- 96
2019-12-09 03:00:00 11.9 9 Sudeste 26 Este 0 -- -- 98
2019-12-09 02:00:00 11.8 10 Sudeste 30 Sudeste 0 -- -- 97
2019-12-09 01:00:00 11.9 10 Este 26 Este 0 -- -- 96
2019-12-09 00:00:00 12.1 9 Sudeste 29 Este 0 -- -- 98
2019-12-08 23:00:00 12 9 Este 33 Este 0 -- -- 97
2019-12-08 22:00:00 12.2 10 Sudeste 30 Este 0 -- -- 98
2019-12-08 21:00:00 12.5 9 Sudeste 30 Este 0 -- -- 99
2019-12-08 20:00:00 12.4 10 Sudeste 29 Este 0 -- -- 98
2019-12-08 19:00:00 12.6 10 Sudeste 28 Este 0 -- -- 99
2019-12-08 18:00:00 12.6 7 Sudeste 35 Nordeste 0 -- -- 98
2019-12-08 17:00:00 12.8 8 Sudeste 32 Este 0 -- -- 98
2019-12-08 16:00:00 13 13 Este 30 Sudeste 0 -- -- 99
2019-12-08 15:00:00 13.9 10 Sudeste 20 Sudeste 0 -- -- 96
2019-12-08 14:00:00 16.1 11 Sudeste 32 Este 0 -- -- 87
2019-12-08 13:00:00 14.8 13 Sudeste 28 Este 0 -- -- 91
2019-12-08 12:00:00 14.2 10 Este 29 Este 0 -- -- 93
2019-12-08 11:00:00 14 11 Este 28 Sudeste 0 -- -- 95
2019-12-08 10:00:00 12.8 15 Sudeste 31 Sudeste 0 -- -- 98
2019-12-08 09:00:00 12.3 10 Sudeste 22 Sudeste 0 -- -- 99
2019-12-08 08:00:00 11.6 6 Sudeste 23 Sudeste 0 -- -- 100
2019-12-08 07:00:00 11.7 8 Sudeste 27 Sudeste 0 -- -- 100
2019-12-08 06:00:00 12.1 7 Sudeste 19 Este 0 -- -- 100
2019-12-08 05:00:00 12.1 8 Sudeste 26 Este 0 -- -- 100
2019-12-08 04:00:00 12.3 8 Sudeste 30 Sudeste 0 -- -- 100
2019-12-08 03:00:00 12.7 13 Sudeste 30 Sudeste 0 -- -- 100
2019-12-08 02:00:00 12.5 12 Sudeste 25 Este 0 -- -- 100
2019-12-08 01:00:00 12.4 10 Este 35 Este 0 -- -- 100
2019-12-08 00:00:00 12.8 12 Sudeste 30 Este 0 -- -- 100
2019-12-07 23:00:00 12.7 10 Sudeste 31 Este 0 -- -- 100
2019-12-07 22:00:00 12.6 9 Sudeste 24 Sudeste 0 -- -- 100
2019-12-07 21:00:00 12.1 9 Este 22 Este 0 -- -- 98
2019-12-07 20:00:00 12 8 Sudeste 23 Sudeste 0 -- -- 98
2019-12-07 19:00:00 12.2 11 Sudeste 25 Nordeste 0 -- -- 99
2019-12-07 18:00:00 12.6 10 Sudeste 31 Este 0 -- -- 100
2019-12-07 17:00:00 12.9 10 Sudeste 27 Este 0 -- -- 100
2019-12-07 16:00:00 13.2 13 Sudeste 35 Este 0 -- -- 100
2019-12-07 15:00:00 13.3 10 Sudeste 27 Este 0 -- -- 100
2019-12-07 14:00:00 13.5 10 Este 26 Este 0 -- -- 100
2019-12-07 13:00:00 13.4 9 Sudeste 27 Sudeste 0 -- -- 100
2019-12-07 12:00:00 13.4 8 Sudeste 28 Este 0 -- -- 100
2019-12-07 11:00:00 12.9 12 Este 24 Este 0 -- -- 100
2019-12-07 10:00:00 12.5 7 Este 30 Sudeste 0 -- -- 100
2019-12-07 09:00:00 12.4 8 Sudeste 23 Sudeste 0 -- -- 100
2019-12-07 08:00:00 12 9 Sudeste 20 Nordeste 0 -- -- 100
2019-12-07 07:00:00 12.2 6 Este 26 Sudeste 1.4 -- -- 100
2019-12-07 06:00:00 12 14 Sudeste 30 Sudeste 1.2 -- -- 100
2019-12-07 05:00:00 12.1 6 Sudeste 21 Nordeste 0.2 -- -- 100
2019-12-07 04:00:00 11.9 6 Sudeste 25 Sudeste 0 -- -- 100
2019-12-07 03:00:00 12.5 8 Sudeste 26 Este 0 -- -- 100
2019-12-07 02:00:00 12.5 11 Sudeste 25 Este 0 -- -- 100
2019-12-07 01:00:00 12.4 12 Este 30 Este 0 -- -- 100
2019-12-07 00:00:00 12.4 8 Sur 24 Nordeste 0 -- -- 100
2019-12-06 23:00:00 12.3 9 Sudeste 32 Sudeste 0 -- -- 100
2019-12-06 22:00:00 12.3 11 Sur 28 Sudoeste 0 -- -- 100
2019-12-06 21:00:00 12.3 12 Sur 26 Este 0 -- -- 98
2019-12-06 20:00:00 12.3 10 Sur 30 Sur 0 -- -- 98
2019-12-06 19:00:00 12.2 13 Sur 25 Sudeste 0 -- -- 97
2019-12-06 18:00:00 12.2 10 Sur 26 Sudoeste 0 -- -- 96
2019-12-06 17:00:00 12.4 10 Sudoeste 25 Nordeste 0 -- -- 98
2019-12-06 16:00:00 12.4 10 Sudoeste 26 Sudoeste 0 -- -- 99
2019-12-06 15:00:00 12.4 11 Sudeste 32 Sur 0 -- -- 100
2019-12-06 14:00:00 12.4 12 Sur 26 Nordeste 0 -- -- 100
2019-12-06 13:00:00 12.3 11 Sur 30 Este 0.4 -- -- 100
2019-12-06 12:00:00 12.7 10 Sudeste 31 Este 0 -- -- 100
2019-12-06 11:00:00 12.2 10 Sudeste 30 Este 0 -- -- 100
2019-12-06 10:00:00 11.9 10 Sudeste 32 Este 0.8 -- -- 100
2019-12-06 09:00:00 12.4 12 Sur 23 Sudeste 0 -- -- 100
2019-12-06 08:00:00 11.9 12 Sur 30 Este 0 -- -- 100
2019-12-06 07:00:00 11.8 10 Sudoeste 27 Sur 0.2 -- -- 100
2019-12-06 06:00:00 11.4 8 Sur 28 Este 0.2 -- -- 100
2019-12-06 05:00:00 11.4 11 Sudeste 33 Este 1 -- -- 100
2019-12-06 04:00:00 11.4 8 Sudoeste 32 Sudoeste 0 -- -- 100
2019-12-06 03:00:00 11.7 9 Sudoeste 39 Sudeste 0.2 -- -- 100
2019-12-06 02:00:00 11.7 12 Sudoeste 31 Sudoeste 0.2 -- -- 100
2019-12-06 01:00:00 11.5 11 Sudoeste 32 Sudeste 0 -- -- 100
2019-12-06 00:00:00 11.5 10 Sur 26 Noroeste 0.2 -- -- 100
2019-12-05 23:00:00 11.7 12 Sur 33 Sudeste 0.8 -- -- 100
2019-12-05 22:00:00 11.6 14 Sur 36 Oeste 0.2 -- -- 100
2019-12-05 21:00:00 11.4 12 Sudoeste 33 Sudoeste 0 -- -- 98
2019-12-05 20:00:00 11.3 11 Sudoeste 29 Sur 0 -- -- 96
2019-12-05 19:00:00 11.3 13 Sudoeste 52 Nordeste 0.2 -- -- 99
2019-12-05 18:00:00 11 13 Sudoeste 31 Sur 0.2 -- -- 96
2019-12-05 17:00:00 11.1 10 Sudoeste 43 Este 0.4 -- -- 100
2019-12-05 16:00:00 11.1 11 Sur 48 Nordeste 2.6 -- -- 100
2019-12-05 15:00:00 11.4 12 Nordeste 33 Nordeste 0 -- -- 100
2019-12-05 14:00:00 11.2 15 Sudoeste 66 Este 0 -- -- 100
2019-12-05 13:00:00 11.7 9 Oeste 26 Sur 0 -- -- 100
2019-12-05 12:00:00 11.4 14 Sudoeste 42 Nordeste 3.6 -- -- 100
2019-12-05 11:00:00 11.7 9 Sudoeste 34 Noroeste 0 -- -- 98
2019-12-05 10:00:00 11.5 8 Sudoeste 40 Este 1.6 -- -- 100
2019-12-05 09:00:00 11.2 13 Sur 33 Oeste 0.2 -- -- 96
2019-12-05 08:00:00 10.6 10 Oeste 45 Nordeste 2 -- -- 99
2019-12-05 07:00:00 11.1 14 Sudeste 45 Nordeste 0 -- -- 96
2019-12-05 06:00:00 10.7 12 Norte 47 Nordeste 0 -- -- 98
2019-12-05 05:00:00 11.4 12 Nordeste 50 Nordeste 0.2 -- -- 91
2019-12-05 04:00:00 11.4 15 Sur 39 Nordeste 0 -- -- 95
2019-12-05 03:00:00 11 12 Noroeste 43 Este 0 -- -- 100
2019-12-05 02:00:00 11.6 12 Oeste 41 Norte 0 -- -- 100
2019-12-05 01:00:00 13.1 11 Oeste 30 Norte 3.6 -- -- 100
2019-12-05 00:00:00 13.3 11 Norte 35 Norte 4.2 -- -- 100
2019-12-04 23:00:00 13.3 12 Norte 27 Nordeste 3 -- -- 100
2019-12-04 22:00:00 12.8 6 Norte 23 Nordeste 0 -- -- 100
2019-12-04 21:00:00 12.7 10 Norte 31 Norte 0.2 -- -- 100
2019-12-04 20:00:00 12.7 10 Norte 39 Nordeste 0 -- -- 100
2019-12-04 19:00:00 12.8 8 Norte 23 Nordeste 0.2 -- -- 99
2019-12-04 18:00:00 12.6 7 Nordeste 22 Nordeste 0 -- -- 93
2019-12-04 17:00:00 13.2 10 Norte 37 Nordeste 0 -- -- 89
2019-12-04 16:00:00 14 8 Norte 21 Norte 0 -- -- 92
2019-12-04 15:00:00 13.9 5 Norte 18 Norte 0 -- -- 98
2019-12-04 14:00:00 12.9 6 Sur 21 Sur 0 -- -- 99
2019-12-04 13:00:00 12.8 10 Norte 26 Este 0.4 -- -- 100
2019-12-04 12:00:00 13 6 Nordeste 25 Nordeste 0.4 -- -- 98
2019-12-04 11:00:00 12.7 5 Este 17 Nordeste 1.8 -- -- 97
2019-12-04 10:00:00 13.5 5 Norte 13 Norte 0 -- -- 90
2019-12-04 09:00:00 12.3 5 Nordeste 13 Nordeste 0 -- -- 91
2019-12-04 08:00:00 11.8 2 Sudoeste 9 Nordeste 0 -- -- 90
2019-12-04 07:00:00 11.7 4 Sur 7 Sudoeste 0 -- -- 89
2019-12-04 06:00:00 11.6 3 Este 13 Sur 0 -- -- 89
2019-12-04 05:00:00 11.9 4 Sur 10 Norte 0 -- -- 95
2019-12-04 04:00:00 12.2 5 Sudoeste 10 Sudeste 0 -- -- 99
2019-12-04 03:00:00 12 2 Sur 9 Sur 0 -- -- 98
2019-12-04 02:00:00 12.1 4 Sudoeste 12 Oeste 0 -- -- 98
2019-12-04 01:00:00 11.5 4 Sudoeste 15 Sudoeste 0 -- -- 95
2019-12-04 00:00:00 11.9 5 Sudeste 18 Sur 0 -- -- 93
2019-12-03 23:00:00 12.2 7 Sudoeste 16 Sudeste 0 -- -- 92
2019-12-03 22:00:00 12.4 6 Sur 17 Sur 0 -- -- 95
2019-12-03 21:00:00 12.3 8 Sudoeste 16 Este 0 -- -- 92
2019-12-03 20:00:00 11.9 6 Sur 14 Norte 0 -- -- 95
2019-12-03 19:00:00 12 6 Sudoeste 15 Sur 0 -- -- 94
2019-12-03 18:00:00 12.1 5 Sur 17 Sur 0 -- -- 93
2019-12-03 17:00:00 12.6 6 Sudoeste 18 Sudoeste 0 -- -- 97
2019-12-03 16:00:00 13.5 7 Sur 19 Sudeste 0 -- -- 91
2019-12-03 15:00:00 14.5 6 Sur 16 Este 0 -- -- 82
2019-12-03 14:00:00 13.8 5 Sudeste 22 Sudeste 0 -- -- 96
2019-12-03 13:00:00 13.1 6 Sudeste 20 Sur 0 -- -- 100
2019-12-03 12:00:00 12.5 3 Sur 16 Nordeste 0 -- -- 100
2019-12-03 11:00:00 12.2 8 Sudoeste 22 Oeste 0.4 -- -- 100
2019-12-03 10:00:00 12 8 Sur 22 Sur 0.2 -- -- 100
2019-12-03 09:00:00 11.8 8 Norte 33 Nordeste 0.6 -- -- 100
2019-12-03 08:00:00 11.1 7 Sur 22 Nordeste 0.2 -- -- 100
2019-12-03 07:00:00 12 6 Sudeste 18 Sudoeste 0 -- -- 100
2019-12-03 06:00:00 11.5 7 Sur 41 Este 0.6 -- -- 100
2019-12-03 05:00:00 11.8 13 Norte 40 Nordeste 1.4 -- -- 100
2019-12-03 04:00:00 11.8 8 Sudoeste 32 Norte 0 -- -- 100
2019-12-03 03:00:00 12.4 10 Sudoeste 24 Sur 1 -- -- 100
2019-12-03 02:00:00 12 9 Este 28 Noroeste 0 -- -- 100
2019-12-03 01:00:00 12.2 9 Sudoeste 35 Norte 0 -- -- 100
2019-12-03 00:00:00 12.4 8 Nordeste 39 Nordeste 0 -- -- 100
2019-12-02 23:00:00 12.6 10 Norte 23 Norte 0 -- -- 100
2019-12-02 22:00:00 12.5 7 Sur 32 Norte 4 -- -- 100
2019-12-02 21:00:00 12.7 9 Nordeste 28 Norte 0 -- -- 100
2019-12-02 20:00:00 12.7 7 Norte 26 Norte 0 -- -- 97
2019-12-02 19:00:00 12.7 7 Sudoeste 31 Norte 0 -- -- 97
2019-12-02 18:00:00 12.8 9 Norte 26 Norte 0 -- -- 96
2019-12-02 17:00:00 13 9 Norte 27 Norte 0 -- -- 91
2019-12-02 16:00:00 13.3 10 Norte 30 Noroeste 0 -- -- 88
2019-12-02 15:00:00 13.3 8 Norte 24 Norte 0 -- -- 87
2019-12-02 14:00:00 13.3 8 Norte 25 Norte 0 -- -- 94
2019-12-02 13:00:00 13.3 6 Norte 25 Nordeste 0 -- -- 94
2019-12-02 12:00:00 13.1 8 Este 30 Norte 0 -- -- 100
2019-12-02 11:00:00 13.6 8 Sur 28 Sudeste 0 -- -- 100
2019-12-02 10:00:00 13.5 9 Sudoeste 27 Norte 0 -- -- 100
2019-12-02 09:00:00 13.4 6 Sudoeste 15 Sur 0 -- -- 100
2019-12-02 08:00:00 13.1 3 Este 18 Sudeste 0 -- -- 100
2019-12-02 07:00:00 13.4 5 Oeste 16 Oeste 0 -- -- 100
2019-12-02 06:00:00 12.8 7 Norte 15 Norte 0 -- -- 100
2019-12-02 05:00:00 12.4 4 Nordeste 15 Nordeste 0 -- -- 98
2019-12-02 04:00:00 12.3 4 Este 12 Nordeste 0 -- -- 94
2019-12-02 03:00:00 13 4 Sudeste 15 Sudeste 0 -- -- 100
2019-12-02 02:00:00 13.2 6 Este 17 Sudeste 0 -- -- 100
2019-12-02 01:00:00 13.3 3 Este 18 Este 0 -- -- 100
2019-12-02 00:00:00 13.2 3 Sur 12 Oeste 0 -- -- 99
2019-12-01 23:00:00 12.8 3 Sudeste 7 Nordeste 0 -- -- 98
2019-12-01 22:00:00 13.1 2 Sudeste 10 Sudoeste 0 -- -- 97
2019-12-01 21:00:00 13.6 3 Sur 11 Sur 0 -- -- 98
2019-12-01 20:00:00 13.7 4 Sur 12 Sur 0 -- -- 97
2019-12-01 19:00:00 13.8 4 Sudeste 15 Sudeste 0 -- -- 97
2019-12-01 18:00:00 14.2 5 Sudoeste 18 Sudeste 0 -- -- 97
2019-12-01 17:00:00 14.9 4 Sudeste 10 Sudoeste 0 -- -- 94
2019-12-01 16:00:00 15.8 3 Este 10 Este 0 -- -- 90
2019-12-01 15:00:00 16.2 3 Norte 15 Este 0 -- -- 88
2019-12-01 14:00:00 16.9 4 Sur 14 Norte 0 -- -- 86
2019-12-01 13:00:00 17.3 5 Nordeste 15 Norte 0 -- -- 85
2019-12-01 12:00:00 16.3 8 Sudeste 16 Este 0 -- -- 87
2019-12-01 11:00:00 15.9 5 Sudeste 12 Sudeste 0 -- -- 92
2019-12-01 10:00:00 14.2 4 Sur 13 Sudeste 0 -- -- 98
2019-12-01 09:00:00 13.4 3 Sudeste 9 Sudoeste 0 -- -- 97
2019-12-01 08:00:00 13.4 3 Sudeste 12 Nordeste 0 -- -- 99
2019-12-01 07:00:00 13.5 4 Oeste 13 Este 0 -- -- 99
2019-12-01 06:00:00 13.5 3 Nordeste 14 Norte 0 -- -- 99
2019-12-01 05:00:00 12.9 2 Noroeste 14 Norte 0 -- -- 97
2019-12-01 04:00:00 13.2 4 Norte 10 Nordeste 0 -- -- 99
2019-12-01 03:00:00 13.9 2 Nordeste 11 Este 0 -- -- 99
2019-12-01 02:00:00 14 3 Sudeste 12 Este 0 -- -- 99
2019-12-01 01:00:00 14.3 5 Este 11 Norte 0 -- -- 99
2019-12-01 00:00:00 14.5 3 Norte 15 Nordeste 0 -- -- 99
2019-11-30 23:00:00 14.8 3 Este 15 Norte 0 -- -- 100
2019-11-30 22:00:00 15.2 3 Este 20 Norte 0 -- -- 100
2019-11-30 21:00:00 14.8 9 Norte 15 Nordeste 0 -- -- 100
2019-11-30 20:00:00 14.3 4 Noroeste 13 Nordeste 0 -- -- 99
2019-11-30 19:00:00 14.5 5 Noroeste 9 Norte 0 -- -- 97
2019-11-30 18:00:00 16 5 Oeste 10 Oeste 0 -- -- 79
2019-11-30 17:00:00 18.3 0 Calma 7 Sur 0 -- -- 89
2019-11-30 16:00:00 20.5 4 Sudeste 10 Sur 0 -- -- 81
2019-11-30 15:00:00 19.6 5 Sudeste 10 Este 0 -- -- 81
2019-11-30 14:00:00 19.8 3 Sur 10 Sudoeste 0 -- -- 84
2019-11-30 13:00:00 20.7 5 Sur 13 Sur 0 -- -- 78
2019-11-30 12:00:00 21.3 7 Sur 17 Sudeste 0 -- -- 77
2019-11-30 11:00:00 22.9 9 Sudeste 27 Sur 0 -- -- 67
2019-11-30 10:00:00 21.7 20 Sur 30 Sur 0 -- -- 37
2019-11-30 09:00:00 17.4 4 Sudeste 18 Sur 0 -- -- 76
2019-11-30 08:00:00 18.5 13 Sur 17 Sur 0 -- -- 40
2019-11-30 07:00:00 18.4 6 Sur 12 Sur 0 -- -- 39
2019-11-30 06:00:00 16.8 5 Sudoeste 14 Este 0 -- -- 51
2019-11-30 05:00:00 15.5 3 Este 9 Sudeste 0 -- -- 69
2019-11-30 04:00:00 14.3 6 Sudeste 13 Sudeste 0 -- -- 82
2019-11-30 03:00:00 14.8 6 Nordeste 11 Nordeste 0 -- -- 100
2019-11-30 02:00:00 14.8 5 Nordeste 13 Nordeste 0 -- -- 100
2019-11-30 01:00:00 15 10 Nordeste 14 Norte 0 -- -- 100
2019-11-30 00:00:00 14.6 4 Norte 15 Nordeste 0 -- -- 97
2019-11-29 23:00:00 14.7 4 Nordeste 11 Nordeste 0 -- -- 100
2019-11-29 22:00:00 14.6 5 Nordeste 13 Norte 0 -- -- 100
2019-11-29 21:00:00 15.3 5 Nordeste 11 Nordeste 0 -- -- 100
2019-11-29 20:00:00 15.6 3 Norte 9 Este 0 -- -- 100
2019-11-29 19:00:00 15.9 4 Sudeste 11 Este 0 -- -- 97
2019-11-29 18:00:00 16.3 4 Nordeste 14 Sur 0 -- -- 98
2019-11-29 17:00:00 20 7 Sudeste 15 Sur 0 -- -- 73
2019-11-29 16:00:00 18.9 3 Sudeste 18 Sudeste 0 -- -- 87
2019-11-29 15:00:00 17.7 4 Este 17 Este 0 -- -- 90
2019-11-29 14:00:00 18.7 5 Sur 15 Norte 0 -- -- 87
2019-11-29 13:00:00 20.3 4 Sudeste 23 Sudeste 0 -- -- 76
2019-11-29 12:00:00 19 8 Sur 17 Sudeste 0 -- -- 88
2019-11-29 11:00:00 15.8 7 Sudeste 14 Sur 0 -- -- 100
2019-11-29 10:00:00 15.3 3 Este 13 Este 0 -- -- 100
2019-11-29 09:00:00 14.5 6 Sudeste 11 Este 0 -- -- 100
2019-11-29 08:00:00 13.9 3 Sudeste 10 Sudeste 0 -- -- 100
2019-11-29 07:00:00 13.8 3 Sudeste 13 Este 0 -- -- 100
2019-11-29 06:00:00 13.9 4 Este 13 Este 0 -- -- 100
2019-11-29 05:00:00 13.8 4 Sudeste 12 Sudeste 0 -- -- 100
2019-11-29 04:00:00 13.9 3 Sur 16 Sudeste 0 -- -- 100
2019-11-29 03:00:00 14 3 Sudoeste 12 Nordeste 0 -- -- 100
2019-11-29 02:00:00 13.9 3 Nordeste 12 Este 0 -- -- 100
2019-11-29 01:00:00 13.7 4 Este 12 Noroeste 0 -- -- 100
2019-11-29 00:00:00 13.2 5 Sudoeste 11 Sudoeste 0 -- -- 98
2019-11-28 23:00:00 13.7 3 Este 15 Nordeste 0 -- -- 100
2019-11-28 22:00:00 13.5 4 Sur 9 Sur 0 -- -- 98
2019-11-28 21:00:00 13.7 2 Norte 9 Sur 0 -- -- 100
2019-11-28 20:00:00 14 4 Este 11 Este 0 -- -- 100
2019-11-28 19:00:00 14.1 3 Sur 9 Nordeste 0 -- -- 100
2019-11-28 18:00:00 14.3 2 Este 9 Norte 0 -- -- 98
2019-11-28 17:00:00 14.7 2 Norte 9 Este 0 -- -- 97
2019-11-28 16:00:00 14.9 2 Sudeste 10 Norte 0 -- -- 97
2019-11-28 15:00:00 15.2 3 Nordeste 9 Norte 0 -- -- 94
2019-11-28 14:00:00 15.7 3 Sudeste 11 Sudeste 0 -- -- 94
2019-11-28 13:00:00 15.6 7 Este 16 Este 0 -- -- 92
2019-11-28 12:00:00 15.3 6 Nordeste 13 Nordeste 0 -- -- 91
2019-11-28 11:00:00 14.9 4 Noroeste 10 Norte 0 -- -- 95
2019-11-28 10:00:00 13.7 3 Norte 10 Sudeste 0 -- -- 97
2019-11-28 09:00:00 13.4 5 Este 12 Este 0 -- -- 100
2019-11-28 08:00:00 13.2 3 Sudeste 13 Sudeste 0 -- -- 100
2019-11-28 07:00:00 13.3 3 Sudeste 9 Nordeste 0 -- -- 100
2019-11-28 06:00:00 13.2 3 Sudoeste 9 Nordeste 0 -- -- 100
2019-11-28 05:00:00 13.1 0 Calma 9 Este 0 -- -- 100
2019-11-28 04:00:00 13.1 5 Sudeste 11 Sudeste 0 -- -- 100
2019-11-28 03:00:00 13.3 4 Este 11 Nordeste 0 -- -- 100
2019-11-28 02:00:00 13.4 5 Este 12 Este 0 -- -- 100
2019-11-28 01:00:00 13.4 0 Calma 9 Sudeste 0 -- -- 100
2019-11-28 00:00:00 13.6 4 Sudoeste 9 Este 0 -- -- 100
2019-11-27 23:00:00 13.7 3 Sudeste 13 Este 0 -- -- 100
2019-11-27 22:00:00 13.7 6 Este 15 Este 0 -- -- 100
2019-11-27 21:00:00 13.9 6 Sudeste 13 Sudeste 0 -- -- 100
2019-11-27 20:00:00 13.8 3 Este 15 Este 0 -- -- 100
2019-11-27 19:00:00 14 3 Sur 12 Sudeste 0 -- -- 100
2019-11-27 18:00:00 14.1 3 Nordeste 12 Nordeste 0 -- -- 99
2019-11-27 17:00:00 14.5 3 Sur 9 Nordeste 0 -- -- 98
2019-11-27 16:00:00 14.9 2 Sudeste 9 Nordeste 0 -- -- 95
2019-11-27 15:00:00 15.2 7 Sur 12 Sudeste 0 -- -- 93
2019-11-27 14:00:00 15.6 2 Nordeste 15 Este 0 -- -- 92
2019-11-27 13:00:00 15.5 5 Sudeste 12 Sudeste 0 -- -- 87
2019-11-27 05:00:00 13.4 9 Este 23 Nordeste 0 -- -- 100
2019-11-27 04:00:00 13.7 6 Sudeste 14 Sudeste 0 -- -- 100
2019-11-27 03:00:00 13.8 4 Este 14 Este 0 -- -- 100
2019-11-27 02:00:00 13.7 5 Sudeste 15 Este 0 -- -- 100
2019-11-27 01:00:00 13.5 4 Sudeste 10 Sudeste 0 -- -- 98
2019-11-27 00:00:00 13.5 4 Sudoeste 19 Nordeste 0 -- -- 100
2019-11-26 23:00:00 13.8 5 Este 14 Sudeste 0 -- -- 100
2019-11-26 22:00:00 13.7 3 Este 13 Este 0 -- -- 100
2019-11-26 21:00:00 13.7 3 Nordeste 15 Nordeste 0 -- -- 100
2019-11-26 20:00:00 13.8 4 Sudeste 17 Nordeste 0 -- -- 99
2019-11-26 19:00:00 14.1 4 Sudeste 10 Este 0 -- -- 98
2019-11-26 18:00:00 14.9 0 Calma 8 Sudeste 0 -- -- 95
2019-11-26 17:00:00 15.1 3 Sur 9 Sudeste 0 -- -- 95
2019-11-26 16:00:00 14.8 3 Sur 14 Nordeste 0 -- -- 95
2019-11-26 15:00:00 15.5 3 Norte 9 Nordeste 0 -- -- 91
2019-11-26 14:00:00 15.6 3 Sudeste 11 Sudeste 0 -- -- 93
2019-11-26 13:00:00 15.6 3 Oeste 10 Este 0 -- -- 91
2019-11-26 12:00:00 15 3 Este 12 Nordeste 0 -- -- 93
2019-11-26 11:00:00 15.3 3 Este 17 Este 0 -- -- 91
2019-11-26 10:00:00 14.6 3 Nordeste 11 Sudeste 0 -- -- 89
2019-11-26 09:00:00 13.6 2 Norte 10 Nordeste 0 -- -- 97
2019-11-26 08:00:00 13.1 2 Este 13 Sudeste 0 -- -- 100
2019-11-26 07:00:00 13.2 3 Este 13 Este 0 -- -- 100
2019-11-26 06:00:00 13 4 Sudeste 12 Nordeste 0 -- -- 99
2019-11-26 05:00:00 13 3 Sudoeste 15 Nordeste 0 -- -- 99
2019-11-26 04:00:00 13 3 Sur 13 Sudeste 0 -- -- 99
2019-11-26 03:00:00 13.4 7 Sudeste 18 Este 0 -- -- 100
2019-11-26 02:00:00 13.2 3 Sudeste 11 Este 0 -- -- 100
2019-11-26 01:00:00 13.2 4 Sudeste 17 Este 0 -- -- 100
2019-11-26 00:00:00 13.6 3 Sudeste 19 Este 0 -- -- 100
2019-11-25 23:00:00 13.8 5 Sudeste 19 Sudeste 0 -- -- 100
2019-11-25 22:00:00 13.8 5 Sudeste 11 Sudeste -- -- -- 100
2019-11-25 21:00:00 13.6 3 Sur 12 Este 0 -- -- 98
2019-11-25 20:00:00 13.5 2 Sudeste 15 Sudeste 0 -- -- 96
2019-11-25 19:00:00 13.6 6 Sudeste 13 Sudeste 0 -- -- 96
2019-11-25 18:00:00 13.8 7 Sudeste 15 Sudeste 0 -- -- 92
2019-11-25 17:00:00 14.5 5 Sudeste 12 Sur 0 -- -- 88
2019-11-25 16:00:00 14.4 3 Este 9 Sudeste 0 -- -- 87
2019-11-25 15:00:00 14.2 5 Nordeste 12 Nordeste 0 -- -- 87
2019-11-25 14:00:00 14.6 3 Nordeste 10 Sudeste 0 -- -- 86
2019-11-25 13:00:00 15.2 4 Sudoeste 18 Sudeste 0 -- -- 85
2019-11-25 12:00:00 14.4 3 Este 14 Este 0 -- -- 89
2019-11-25 11:00:00 13.9 4 Sur 12 Sudeste 0 -- -- 93
2019-11-25 10:00:00 13.9 3 Sudeste 8 Sudeste 0 -- -- 93
2019-11-25 09:00:00 13.6 4 Sudeste 11 Nordeste 0 -- -- 93
2019-11-25 08:00:00 12.5 4 Sudeste 14 Nordeste 0 -- -- 96
2019-11-25 07:00:00 12.3 4 Sur 14 Norte 0 -- -- 97
2019-11-25 06:00:00 12.2 4 Sudeste 13 Sudeste 0 -- -- 96
2019-11-25 05:00:00 12.4 3 Sudeste 11 Nordeste 0 -- -- 99
2019-11-25 04:00:00 12.2 4 Este 12 Este 0 -- -- 98
2019-11-25 03:00:00 12.2 4 Sur 9 Nordeste 0 -- -- 99
2019-11-25 02:00:00 12.5 5 Sur 14 Este 0 -- -- 100
2019-11-25 01:00:00 13.1 5 Este 18 Sudeste 0 -- -- 100
2019-11-25 00:00:00 13.4 5 Sudeste 18 Sudeste 0 -- -- 100
2019-11-24 23:00:00 13.5 5 Sudeste 14 Este 0 -- -- 100
2019-11-24 22:00:00 13.4 3 Sur 12 Este 0 -- -- 100
2019-11-24 21:00:00 13.4 4 Este 14 Nordeste 0 -- -- 100
2019-11-24 20:00:00 13.9 5 Sudeste 15 Sudeste 0 -- -- 100
2019-11-24 19:00:00 13.8 4 Sudeste 12 Este 0 -- -- 100
2019-11-24 18:00:00 14.2 4 Sur 13 Nordeste 0 -- -- 100
2019-11-24 17:00:00 14.5 6 Sudeste 19 Este 0 -- -- 100
2019-11-24 16:00:00 14.7 8 Este 20 Sudeste 0 -- -- 100
2019-11-24 15:00:00 15.4 4 Este 12 Sudeste 0 -- -- 100
2019-11-24 14:00:00 15.2 3 Nordeste 12 Nordeste 0 -- -- 100
2019-11-24 13:00:00 15 3 Nordeste 17 Sudeste 0.2 -- -- 100
2019-11-24 12:00:00 15.4 4 Sudeste 17 Sudeste 0 -- -- 100
2019-11-24 11:00:00 15.6 7 Sudeste 19 Sudeste 0 -- -- 100
2019-11-24 10:00:00 14.7 3 Sudeste 16 Nordeste 1 -- -- 100
2019-11-24 09:00:00 14.4 6 Sudeste 22 Sudeste 0.2 -- -- 100
2019-11-24 08:00:00 14 5 Este 21 Nordeste 0 -- -- 100
2019-11-24 07:00:00 14.2 7 Sudeste 18 Nordeste 0 -- -- 100
2019-11-24 06:00:00 14.1 5 Este 15 Nordeste 0.4 -- -- 100
2019-11-24 05:00:00 14.1 3 Sur 19 Este 1.8 -- -- 100
2019-11-24 04:00:00 14.5 8 Este 31 Norte 2.6 -- -- 100
2019-11-24 03:00:00 14.5 6 Sudeste 21 Este 0 -- -- 100
2019-11-24 02:00:00 14.6 5 Este 14 Este 0 -- -- 100
2019-11-24 01:00:00 14.6 5 Sudoeste 19 Sudeste 0 -- -- 100
2019-11-24 00:00:00 14.9 5 Sudeste 19 Nordeste 0 -- -- 100
2019-11-23 23:00:00 14.8 5 Este 18 Sudeste 0 -- -- 100
2019-11-23 22:00:00 15.1 5 Este 19 Nordeste 0 -- -- 100
2019-11-23 21:00:00 15.4 5 Sudeste 24 Nordeste 0 -- -- 100
2019-11-23 20:00:00 15.4 6 Este 23 Nordeste 0 -- -- 100
2019-11-23 19:00:00 15.5 7 Sudeste 24 Sudeste 0 -- -- 100
2019-11-23 18:00:00 15.7 6 Sudeste 23 Este 0 -- -- 100
2019-11-23 17:00:00 16.1 5 Este 17 Este 0 -- -- 98
2019-11-23 16:00:00 17.1 3 Este 16 Este 0 -- -- 95
2019-11-23 15:00:00 17 4 Este 15 Norte 0 -- -- 94
2019-11-23 14:00:00 17 5 Este 15 Nordeste 0 -- -- 94
2019-11-23 13:00:00 16.7 3 Este 13 Este 0 -- -- 95
2019-11-23 12:00:00 17.1 5 Sudeste 17 Este 0 -- -- 100
2019-11-23 11:00:00 16.3 4 Oeste 13 Sudeste 0 -- -- 100
2019-11-23 10:00:00 16 3 Sur 12 Nordeste 0 -- -- 100
2019-11-23 09:00:00 15.5 4 Norte 19 Norte 0 -- -- 100
2019-11-23 08:00:00 15.2 3 Nordeste 16 Nordeste 0.2 -- -- 100
2019-11-23 07:00:00 15.3 4 Noroeste 16 Este 2 -- -- 100
2019-11-23 06:00:00 15.3 4 Oeste 21 Norte 0.6 -- -- 100
2019-11-23 05:00:00 15.7 4 Norte 16 Sur 1.2 -- -- 100
2019-11-23 04:00:00 15.7 5 Sudoeste 22 Noroeste 1.4 -- -- 100
2019-11-23 03:00:00 15.6 7 Norte 21 Norte 0.2 -- -- 100
2019-11-23 02:00:00 15.6 5 Norte 17 Nordeste 0 -- -- 100
2019-11-23 01:00:00 15.5 6 Norte 17 Norte 0 -- -- 100
2019-11-23 00:00:00 15.1 8 Norte 16 Nordeste 0 -- -- 100
2019-11-22 23:00:00 15.4 9 Norte 14 Noroeste 0 -- -- 98
2019-11-22 22:00:00 15.7 4 Norte 11 Noroeste 0 -- -- 97
2019-11-22 21:00:00 15.4 4 Noroeste 12 Norte 0 -- -- 97
2019-11-22 20:00:00 15.6 8 Noroeste 11 Noroeste 0 -- -- 95
2019-11-22 19:00:00 15.3 5 Noroeste 11 Norte 0 -- -- 95
2019-11-22 18:00:00 15.9 7 Norte 14 Norte 0 -- -- 91
2019-11-22 17:00:00 17.4 7 Norte 14 Norte 0 -- -- 86
2019-11-22 16:00:00 19.2 5 Norte 19 Norte 0 -- -- 77
2019-11-22 15:00:00 19.9 6 Noroeste 20 Nordeste 0 -- -- 76
2019-11-22 14:00:00 18.9 7 Norte 18 Nordeste 0 -- -- 74
2019-11-22 13:00:00 18.7 5 Norte 14 Nordeste 0 -- -- 77
2019-11-22 12:00:00 17.1 4 Norte 13 Norte 0 -- -- 89
2019-11-22 11:00:00 16.1 3 Noroeste 15 Norte 0 -- -- 95
2019-11-22 10:00:00 14.9 7 Nordeste 17 Norte 0 -- -- 97
2019-11-22 09:00:00 14 6 Nordeste 16 Nordeste 0 -- -- 100
2019-11-22 08:00:00 13.7 6 Norte 19 Noroeste 0 -- -- 100
2019-11-22 07:00:00 14.1 5 Nordeste 15 Norte 0 -- -- 100
2019-11-22 06:00:00 14.1 6 Norte 16 Nordeste 0 -- -- 100
2019-11-22 05:00:00 14.3 9 Norte 19 Norte 0.6 -- -- 100
2019-11-22 04:00:00 14.5 7 Norte 24 Norte 0.2 -- -- 100
2019-11-22 03:00:00 14.8 9 Norte 29 Norte 0.8 -- -- 100
2019-11-22 02:00:00 15.2 8 Norte 26 Norte 6.2 -- -- 100
2019-11-22 01:00:00 15.7 9 Norte 27 Nordeste 2.8 -- -- 100
2019-11-22 00:00:00 15.5 5 Norte 19 Norte 0.4 -- -- 100
2019-11-21 23:00:00 15.6 5 Norte 22 Noroeste 0 -- -- 96
2019-11-21 22:00:00 15.5 14 Noroeste 33 Noroeste 0 -- -- 95
2019-11-21 21:00:00 15.2 26 Noroeste 34 Noroeste 0 -- -- 98
2019-11-21 20:00:00 15.6 22 Noroeste 31 Oeste 0 -- -- 95
2019-11-21 19:00:00 15.5 19 Noroeste 39 Noroeste 0 -- -- 94
2019-11-21 18:00:00 15.3 29 Noroeste 54 Noroeste 0 -- -- 94
2019-11-21 17:00:00 16.9 31 Noroeste 44 Noroeste 0 -- -- 85
2019-11-21 16:00:00 18.9 20 Noroeste 39 Noroeste 0 -- -- 76
2019-11-21 15:00:00 18.6 22 Noroeste 38 Noroeste 0 -- -- 77
2019-11-21 14:00:00 18.7 17 Noroeste 33 Noroeste 0 -- -- 76
2019-11-21 13:00:00 17.4 24 Noroeste 39 Noroeste 0 -- -- 79
2019-11-21 12:00:00 18.2 13 Noroeste 24 Noroeste 0 -- -- 81
2019-11-21 11:00:00 16.8 14 Noroeste 26 Oeste 0 -- -- 82
2019-11-21 10:00:00 14.9 18 Noroeste 29 Noroeste 0 -- -- 90
2019-11-21 09:00:00 13.5 12 Noroeste 31 Noroeste 0 -- -- 95
2019-11-21 08:00:00 12.2 15 Noroeste 24 Noroeste 0 -- -- 97
2019-11-21 07:00:00 -- -- -- -- -- -- -- -- --
2019-11-21 06:00:00 -- -- -- -- -- -- -- -- --
2019-11-21 05:00:00 -- -- -- -- -- -- -- -- --
2019-11-21 04:00:00 -- -- -- -- -- -- -- -- --
2019-11-21 03:00:00 -- -- -- -- -- -- -- -- --
2019-11-21 02:00:00 -- -- -- -- -- -- -- -- --
2019-11-21 01:00:00 -- -- -- -- -- -- -- -- --
2019-11-21 00:00:00 -- -- -- -- -- -- -- -- --
2019-11-20 23:00:00 -- -- -- -- -- -- -- -- --
2019-11-20 22:00:00 -- -- -- -- -- -- -- -- --
2019-11-20 21:00:00 -- -- -- -- -- -- -- -- --
2019-11-20 20:00:00 -- -- -- -- -- -- -- -- --
2019-11-20 19:00:00 -- -- -- -- -- -- -- -- --
2019-11-20 18:00:00 14.5 5 Nordeste 16 Norte 0.6 -- -- 97
2019-11-20 17:00:00 15.5 6 Norte 38 Noroeste 0 -- -- 90
2019-11-20 16:00:00 17.1 24 Noroeste 44 Norte 0 -- -- 85
2019-11-20 15:00:00 17.6 14 Noroeste 26 Noroeste 0 -- -- 84
2019-11-20 14:00:00 18.4 5 Oeste 11 Noroeste 0 -- -- 74
2019-11-20 13:00:00 18.1 3 Norte 14 Noroeste 0 -- -- 71
2019-11-20 12:00:00 17.9 4 Nordeste 13 Noroeste 0 -- -- 70
2019-11-20 11:00:00 17 5 Norte 10 Noroeste 0 -- -- 70
2019-11-20 10:00:00 15.7 5 Noroeste 10 Noroeste 0 -- -- 81
2019-11-20 09:00:00 13.6 4 Noroeste 12 Noroeste 0 -- -- 92
2019-11-20 08:00:00 12.1 6 Noroeste 11 Norte 0 -- -- 94
2019-11-20 07:00:00 12 6 Noroeste 12 Noroeste 0 -- -- 97
2019-11-20 06:00:00 12.6 5 Norte 15 Noroeste 0 -- -- 100
2019-11-20 05:00:00 12.4 10 Noroeste 14 Noroeste 0 -- -- 99
2019-11-20 04:00:00 12.1 9 Noroeste 14 Noroeste 0 -- -- 98
2019-11-20 03:00:00 12 11 Noroeste 18 Noroeste 0 -- -- 97
2019-11-20 02:00:00 12.2 13 Noroeste 21 Noroeste 0 -- -- 99
2019-11-20 01:00:00 12.9 8 Norte 15 Norte 0 -- -- 100
2019-11-20 00:00:00 12.9 5 Norte 14 Norte 0.2 -- -- 100
2019-11-19 23:00:00 13.2 5 Nordeste 19 Nordeste 0 -- -- 100
2019-11-19 22:00:00 13.2 6 Norte 15 Nordeste 0.2 -- -- 99
2019-11-19 21:00:00 13 4 Norte 12 Norte 0 -- -- 98
2019-11-19 20:00:00 12.7 4 Norte 11 Norte 0 -- -- 96
2019-11-19 19:00:00 13.2 3 Norte 10 Norte 0 -- -- 94
2019-11-19 18:00:00 14.5 4 Nordeste 14 Nordeste 0 -- -- 86
2019-11-19 17:00:00 16 8 Norte 18 Noroeste 0 -- -- 82
2019-11-19 16:00:00 18.1 9 Noroeste 18 Norte 0 -- -- 70
2019-11-19 15:00:00 17.7 9 Norte 19 Norte 0 -- -- 73
2019-11-19 14:00:00 16.9 7 Norte 15 Norte 0 -- -- 77
2019-11-19 13:00:00 15.4 8 Norte 18 Norte 0 -- -- 84
2019-11-19 12:00:00 14.2 4 Norte 15 Norte 0 -- -- 96
2019-11-19 11:00:00 13.6 5 Noroeste 18 Norte 0 -- -- 99
2019-11-19 10:00:00 13.3 5 Norte 13 Norte 0 -- -- 100
2019-11-19 09:00:00 12.9 5 Norte 19 Norte 0 -- -- 100
2019-11-19 08:00:00 12.5 6 Nordeste 17 Norte 0 -- -- 100
2019-11-19 07:00:00 12.5 6 Noroeste 19 Norte 0.6 -- -- 100
2019-11-19 06:00:00 12.3 4 Norte 13 Nordeste 0 -- -- 100
2019-11-19 05:00:00 12.4 2 Sur 6 Nordeste 0 -- -- 100
2019-11-19 04:00:00 12.5 3 Este 9 Este 0.2 -- -- 100
2019-11-19 03:00:00 12.6 4 Sur 13 Sudeste 0 -- -- 100
2019-11-19 02:00:00 12.5 3 Sudeste 10 Sudeste 0 -- -- 100
2019-11-19 01:00:00 12.6 4 Sudeste 14 Sudeste 0.2 -- -- 100
2019-11-19 00:00:00 12.9 5 Sudeste 13 Nordeste 0 -- -- 100
2019-11-18 23:00:00 12.9 4 Sudeste 14 Nordeste 0 -- -- 100
2019-11-18 22:00:00 12.7 4 Sudeste 15 Este 0 -- -- 98
2019-11-18 21:00:00 12.7 5 Sudeste 15 Sudeste 0 -- -- 98
2019-11-18 20:00:00 12.6 4 Sudeste 19 Este 0 -- -- 99
2019-11-18 19:00:00 13.2 8 Sudeste 24 Sudeste 0 -- -- 100
2019-11-18 18:00:00 13.3 8 Sudeste 25 Nordeste 0 -- -- 100
2019-11-18 17:00:00 13.6 5 Sudeste 21 Norte 0 -- -- 100
2019-11-18 16:00:00 13.8 5 Sudeste 23 Nordeste 0 -- -- 99
2019-11-18 15:00:00 14.6 5 Sudeste 21 Sudeste 0 -- -- 95
2019-11-18 14:00:00 15.2 7 Sudeste 19 Sudeste 0 -- -- 90
2019-11-18 13:00:00 16.2 6 Sudeste 21 Sur 0 -- -- 85
2019-11-18 12:00:00 16.4 7 Este 21 Sudeste 0 -- -- 82
2019-11-18 11:00:00 14.8 5 Sudeste 17 Sudeste 0 -- -- 91
2019-11-18 10:00:00 13.5 5 Sudeste 16 Sudeste 0 -- -- 98
2019-11-18 09:00:00 12.5 6 Sudeste 21 Este 0 -- -- 97
2019-11-18 08:00:00 12.8 8 Sudeste 23 Nordeste 0 -- -- 100
2019-11-18 07:00:00 12.6 8 Sudeste 31 Este 0.2 -- -- 100
2019-11-18 06:00:00 12.6 9 Este 28 Este 0 -- -- 99
2019-11-18 05:00:00 12.5 6 Sudeste 23 Este 0 -- -- 99
2019-11-18 04:00:00 12.7 8 Sudeste 27 Este 0 -- -- 99
2019-11-18 03:00:00 12.3 8 Este 22 Nordeste 0 -- -- 87
2019-11-18 02:00:00 12.2 7 Sudeste 22 Este 0 -- -- 87
2019-11-18 01:00:00 12.2 7 Este 18 Este 0 -- -- 94
2019-11-18 00:00:00 12.2 12 Este 29 Este 0 -- -- 96
2019-11-17 23:00:00 11.9 9 Este 23 Sudeste 0 -- -- 100
2019-11-17 22:00:00 12.4 6 Sudeste 25 Este 0 -- -- 100
2019-11-17 21:00:00 12.2 9 Sudeste 28 Este 0.2 -- -- 99
2019-11-17 20:00:00 12.5 10 Sudeste 25 Este 0 -- -- 93
2019-11-17 19:00:00 12.5 11 Sudeste 29 Nordeste 0 -- -- 97
2019-11-17 18:00:00 12.4 7 Sudeste 23 Este 0 -- -- 99
2019-11-17 17:00:00 12.9 8 Sudeste 21 Sudeste 0 -- -- 97
2019-11-17 16:00:00 13.3 10 Sudeste 32 Nordeste 0 -- -- 92
2019-11-17 15:00:00 13.9 8 Sudeste 28 Este 0 -- -- 89
2019-11-17 14:00:00 13.9 9 Sudeste 29 Nordeste 0 -- -- 92
2019-11-17 13:00:00 13.2 10 Sudeste 30 Este 0 -- -- 96
2019-11-17 12:00:00 12.7 11 Sudeste 23 Sudeste 0 -- -- 100
2019-11-17 11:00:00 12.4 10 Este 28 Sudeste 0 -- -- 100
2019-11-17 10:00:00 12.7 13 Sudeste 27 Este 0 -- -- 100
2019-11-17 09:00:00 12.5 15 Sudeste 30 Sudeste 0 -- -- 100
2019-11-17 08:00:00 11.5 8 Este 23 Este 0 -- -- 100
2019-11-17 07:00:00 11.7 7 Sudeste 24 Sudeste 0 -- -- 100
2019-11-17 06:00:00 12.2 8 Sudeste 25 Sudeste 0.4 -- -- 100
2019-11-17 05:00:00 12.5 8 Sudeste 25 Nordeste 0.4 -- -- 100
2019-11-17 04:00:00 12.4 7 Este 24 Sudeste 0 -- -- 100
2019-11-17 03:00:00 12.2 9 Este 25 Nordeste 0 -- -- 98
2019-11-17 02:00:00 12.2 8 Sudeste 27 Nordeste 0 -- -- 97
2019-11-17 01:00:00 12.3 7 Sudeste 27 Este 0 -- -- 97
2019-11-17 00:00:00 12.6 8 Sudeste 26 Nordeste 0 -- -- 98
2019-11-16 23:00:00 12.1 10 Sudeste 30 Este 0 -- -- 93
2019-11-16 22:00:00 11.8 9 Sudeste 28 Este 0 -- -- 98
2019-11-16 21:00:00 12.5 11 Este 29 Sudeste 0.2 -- -- 100
2019-11-16 20:00:00 12.6 12 Este 31 Este 0 -- -- 100
2019-11-16 19:00:00 12.7 12 Este 30 Este 0 -- -- 96
2019-11-16 18:00:00 13.1 11 Este 25 Sudeste 0 -- -- 99
2019-11-16 17:00:00 13.3 11 Sudeste 31 Este 0 -- -- 96
2019-11-16 16:00:00 14.6 9 Este 32 Este 0 -- -- 85
2019-11-16 15:00:00 14.4 11 Sudeste 32 Este 0 -- -- 88
2019-11-16 14:00:00 14.8 9 Sudeste 29 Este 0 -- -- 85
2019-11-16 13:00:00 15.5 12 Este 27 Este 0 -- -- 79
2019-11-16 12:00:00 13.8 8 Sudeste 27 Sudeste 0 -- -- 85
2019-11-16 11:00:00 14.1 14 Sudeste 30 Sudeste 0 -- -- 82
2019-11-16 10:00:00 12.8 11 Sudeste 31 Este 0 -- -- 88
2019-11-16 09:00:00 11.9 13 Este 34 Este 0 -- -- 98
2019-11-16 08:00:00 11.9 10 Este 25 Este 0.8 -- -- 100
2019-11-16 07:00:00 11.2 10 Este 34 Este 0 -- -- 100
2019-11-16 06:00:00 11.7 8 Sudeste 32 Este 0.2 -- -- 100
2019-11-16 05:00:00 12.1 11 Sudeste 34 Este 0 -- -- 100
2019-11-16 04:00:00 11.9 10 Sudeste 28 Este 0 -- -- 100
2019-11-16 03:00:00 11.8 11 Sudeste 33 Nordeste 0 -- -- 96
2019-11-16 02:00:00 12.3 13 Sudeste 29 Este 0 -- -- 99
2019-11-16 01:00:00 12.2 13 Sudeste 35 Este 0 -- -- 95
2019-11-16 00:00:00 12.3 10 Sudeste 29 Este 0 -- -- 96
2019-11-15 23:00:00 12 11 Este 31 Este 0 -- -- 92
2019-11-15 22:00:00 12.2 13 Sudeste 30 Este 0 -- -- 94
2019-11-15 21:00:00 12.3 9 Sudeste 31 Este 0 -- -- 95
2019-11-15 20:00:00 12.1 11 Sudeste 31 Sudeste 0 -- -- 93
2019-11-15 19:00:00 12.1 9 Sudeste 30 Sudeste 0 -- -- 90
2019-11-15 18:00:00 12.4 11 Sur 27 Este 0 -- -- 95
2019-11-15 17:00:00 12.5 10 Sudeste 30 Este 0 -- -- 97
2019-11-15 16:00:00 13.1 9 Sudeste 32 Este 0.2 -- -- 100
2019-11-15 15:00:00 13.3 7 Sudeste 28 Este 0 -- -- 100
2019-11-15 14:00:00 13.1 11 Sudeste 34 Sudeste 0.6 -- -- 100
2019-11-15 13:00:00 13.6 12 Sur 30 Este 0 -- -- 100
2019-11-15 12:00:00 13.3 13 Este 32 Sudeste 0 -- -- 100
2019-11-15 11:00:00 13.5 10 Sudeste 25 Este 0 -- -- 100
2019-11-15 10:00:00 13.6 9 Sudeste 28 Este 0 -- -- 100
2019-11-15 09:00:00 13 8 Sudeste 29 Nordeste 0 -- -- 100
2019-11-15 08:00:00 13.6 13 Sur 28 Sudeste 1.4 -- -- 100
2019-11-15 07:00:00 13.5 10 Sur 24 Este 0 -- -- 99
2019-11-15 06:00:00 13.3 10 Este 26 Este 0 -- -- 96
2019-11-15 05:00:00 13.1 10 Sudeste 29 Este 0 -- -- 96
2019-11-15 04:00:00 13.1 10 Sudeste 33 Este 0 -- -- 96
2019-11-15 03:00:00 12.9 13 Este 34 Sudeste 0 -- -- 98
2019-11-15 02:00:00 13.6 12 Sudeste 31 Sudeste 0.2 -- -- 100
2019-11-15 01:00:00 13.6 13 Este 33 Nordeste 0.2 -- -- 100
2019-11-15 00:00:00 13.8 12 Sudeste 37 Nordeste 0 -- -- 100
2019-11-14 23:00:00 13.7 9 Sudeste 29 Este 0 -- -- 98
2019-11-14 22:00:00 13.7 11 Este 33 Este 0 -- -- 98
2019-11-14 21:00:00 13.5 13 Este 40 Sudeste 0 -- -- 100
2019-11-14 20:00:00 14.3 11 Este 28 Este 0 -- -- 100
2019-11-14 19:00:00 14 9 Sudeste 25 Este 0 -- -- 100
2019-11-14 18:00:00 14.3 9 Sudeste 26 Norte 0 -- -- 100
2019-11-14 17:00:00 14.7 7 Sudeste 23 Este 0 -- -- 98
2019-11-14 16:00:00 15.1 7 Sudeste 23 Sudeste 0 -- -- 97
2019-11-14 15:00:00 15.6 8 Este 22 Este 0 -- -- 92
2019-11-14 14:00:00 16.3 5 Oeste 22 Este 0 -- -- 93
2019-11-14 13:00:00 15.1 8 Sudeste 26 Este 0 -- -- 100
2019-11-14 12:00:00 14.9 11 Sudeste 27 Este 0 -- -- 100
2019-11-14 11:00:00 14.5 9 Sudeste 23 Este 0 -- -- 100
2019-11-14 10:00:00 14.2 7 Este 27 Sudeste 0 -- -- 100
2019-11-14 09:00:00 14.6 10 Sudeste 19 Sudeste 0 -- -- 100
2019-11-14 08:00:00 13.9 7 Sudeste 20 Nordeste 0 -- -- 93
2019-11-14 07:00:00 13.7 6 Sudeste 19 Nordeste 0 -- -- 91
2019-11-14 06:00:00 13.4 6 Este 26 Sudeste 0 -- -- 91
2019-11-14 05:00:00 13.5 6 Sudeste 26 Este 0 -- -- 92
2019-11-14 04:00:00 13.5 9 Sudeste 23 Sudeste 0 -- -- 93
2019-11-14 03:00:00 13.6 9 Sudeste 22 Sudeste 0 -- -- 96
2019-11-14 02:00:00 13.6 8 Sudeste 26 Sudeste 0 -- -- 95
2019-11-14 01:00:00 13.6 9 Este 21 Nordeste 0 -- -- 95
2019-11-14 00:00:00 13.6 8 Sudeste 26 Este 0 -- -- 97
2019-11-13 23:00:00 13.5 6 Sudeste 20 Este 0 -- -- 95
2019-11-13 22:00:00 13.8 9 Sudeste 22 Sudeste 0 -- -- 100
2019-11-13 21:00:00 13.8 9 Sudeste 22 Este 0 -- -- 99
2019-11-13 20:00:00 13.9 8 Sur 23 Nordeste 0 -- -- 100
2019-11-13 19:00:00 13.8 8 Sudeste 36 Sudeste 0 -- -- 99
2019-11-13 18:00:00 14.3 9 Sudeste 27 Este 0 -- -- 100
2019-11-13 17:00:00 14.6 8 Sudeste 26 Este 0 -- -- 99
2019-11-13 16:00:00 15 9 Sudeste 23 Nordeste 0 -- -- 95
2019-11-13 15:00:00 15.4 9 Sudeste 22 Sudeste 0 -- -- 95
2019-11-13 14:00:00 15.6 9 Sudeste 21 Este 0 -- -- 95
2019-11-13 13:00:00 16.2 8 Sudeste 21 Nordeste 0 -- -- 93
2019-11-13 12:00:00 15.6 8 Sudeste 35 Sudeste 0 -- -- 98
2019-11-13 11:00:00 15 9 Sudeste 29 Este -- -- -- 100
2019-11-13 10:00:00 -- 12 Sudeste 24 Sudeste -- -- -- --
2019-11-13 09:00:00 14.1 8 Sudeste 31 Este 0 -- -- 100
2019-11-13 08:00:00 14 8 Sur 26 Este 0 -- -- 100
2019-11-13 07:00:00 14 10 Sudeste 23 Sur 0 -- -- 100
2019-11-13 06:00:00 13.9 9 Sur 33 Este 0 -- -- 100
2019-11-13 05:00:00 13.7 6 Sur 20 Sudeste 0 -- -- 100
2019-11-13 04:00:00 13.7 9 Sudeste 19 Nordeste 0 -- -- 100
2019-11-13 03:00:00 13.8 5 Sur 21 Nordeste 0 -- -- 100
2019-11-13 02:00:00 13.9 8 Sur 22 Este 0 -- -- 100
2019-11-13 01:00:00 13.7 6 Sur 25 Este 0 -- -- 100
2019-11-13 00:00:00 14 7 Sur 21 Este 0 -- -- 100
2019-11-12 23:00:00 14 7 Sudeste 28 Este 0 -- -- 100
2019-11-12 22:00:00 14 11 Sudeste 28 Este 0 -- -- 100
2019-11-12 21:00:00 14.7 12 Sudeste 32 Este 0 -- -- 100
2019-11-12 20:00:00 14.6 10 Sudeste 29 Este 0 -- -- 100
2019-11-12 19:00:00 15.5 9 Sudeste 30 Este 0.2 -- -- 100
2019-11-12 18:00:00 15.4 10 Sudeste 28 Nordeste 1.2 -- -- 100
2019-11-12 17:00:00 15 8 Sudeste 31 Nordeste 0.2 -- -- 100
2019-11-12 16:00:00 15.5 8 Este 31 Este 0.4 -- -- 100
2019-11-12 15:00:00 15.3 6 Sudeste 26 Nordeste 0 -- -- 100
2019-11-12 14:00:00 15.6 11 Sudeste 24 Sudeste 0 -- -- 100
2019-11-12 13:00:00 15.6 8 Este 27 Sudeste 1.6 -- -- 100
2019-11-12 12:00:00 15 10 Este 33 Este 0 -- -- 100
2019-11-12 11:00:00 15.1 10 Sudeste 29 Nordeste 0 -- -- 100
2019-11-12 10:00:00 15.1 8 Este 27 Este 0 -- -- 100
2019-11-12 09:00:00 14.7 8 Sudeste 23 Este 0 -- -- 99
2019-11-12 08:00:00 14.1 9 Sudeste 25 Este 0 -- -- 99
2019-11-12 07:00:00 14.1 6 Sudeste 20 Nordeste 0 -- -- 98
2019-11-12 06:00:00 13.6 7 Sur 20 Sudeste 0 -- -- 98
2019-11-12 05:00:00 13.8 8 Sur 26 Este 0 -- -- 99
2019-11-12 04:00:00 13.5 8 Sudeste -- -- -- -- -- 100
2019-11-12 03:00:00 -- -- -- -- -- -- -- -- --
2019-11-12 02:00:00 14 11 Este 26 Este 0 -- -- 100
2019-11-12 01:00:00 14 9 Sudeste 28 Este 0 -- -- 100
2019-11-12 00:00:00 14.1 7 Sudeste 32 Este 0 -- -- 100
2019-11-11 23:00:00 14.1 10 Este 26 Este 0 -- -- 100
2019-11-11 22:00:00 14.2 13 Este 31 Este 0 -- -- 100
2019-11-11 21:00:00 14.2 11 Sudeste 29 Sudeste 0 -- -- 100
2019-11-11 20:00:00 14.2 10 Sudeste 35 Nordeste 0 -- -- 100
2019-11-11 19:00:00 14.3 9 Este 26 Este 0 -- -- 99
2019-11-11 18:00:00 14.3 9 Este 27 Este 0 -- -- 98
2019-11-11 17:00:00 14.7 9 Sur 25 Sudeste 0 -- -- 98
2019-11-11 16:00:00 15 6 Sudeste 27 Sudeste 0 -- -- 94
2019-11-11 15:00:00 15.9 12 Este 31 Este 0 -- -- 88
2019-11-11 14:00:00 16 12 Sudeste 28 Sudeste 0 -- -- 88
2019-11-11 13:00:00 16.5 8 Sudeste 29 Este 0 -- -- 91
2019-11-11 12:00:00 16.5 6 Sudoeste 27 Nordeste 0 -- -- 85
2019-11-11 11:00:00 15.6 9 Este 27 Este 0 -- -- 94
2019-11-11 10:00:00 14.3 11 Sudeste 30 Nordeste 0 -- -- 92
2019-11-11 09:00:00 14.1 12 Sudeste 29 Nordeste 0 -- -- 96
2019-11-11 08:00:00 13.7 12 Sudeste 34 Nordeste 0 -- -- 95
2019-11-11 07:00:00 13.6 10 Sudeste 33 Este 0 -- -- 94
2019-11-11 06:00:00 13.6 8 Sudeste 28 Sudeste 0 -- -- 95
2019-11-11 05:00:00 13.7 11 Sudeste 31 Nordeste 0 -- -- 97
2019-11-11 04:00:00 13.6 8 Sudeste 24 Este 0 -- -- 94
2019-11-11 03:00:00 13.6 8 Sur 30 Este 0 -- -- 91
2019-11-11 02:00:00 13.8 10 Sudeste 41 Este 0 -- -- 97
2019-11-11 01:00:00 13.4 10 Este 36 Este 0 -- -- 98
2019-11-11 00:00:00 13.3 20 Este 37 Nordeste 0 -- -- 100